Mildura, Victoria

8:49 AM AEST on July 30, 2015 (GMT +1000)
South Mildura | | Change Station
CLOSE
Current Station
Personal Weather Station
Location: Mildura, VICTORIA
Elevation: 171 ft
Nearby Weather Stations

Elev 171 ft 34.22 °S, 142.14 °E | Updated 2 minutes ago

Clear
Clear
44.2 °F
Feels Like 39 °F
N
9.0
Wind Variable Wind from NNW
Gusts 16.0 mph

Today
High -- | Low -- °F
--% Chance of Precip.
Yesterday
High -- | Low -- °F
Precip. -- in
7:26 AM 5:49 PM
Waxing Gibbous, 97% visible
Pressure 30.21 in
Visibility 6.2 miles
Clouds
Windchill 39 °F
Dew Point 35 °F
Humidity 71%
Rainfall 0.00 in
Snow Depth Not available.
UV Not available.
Pollen Not available.
Air Quality Not available.
Flu Activity Not available.
METAR YMIA 292200Z AUTO 36011KT 9999 // NCD 07/02 Q1023

More Conditions Fewer Conditions

Pressure 30.21 in
Visibility 6.2 miles
Clouds
Windchill 39 °F
Dew Point 35 °F
Humidity 71%
Rainfall 0.00 in
Snow Depth Not available.
UV Not available.
Pollen Not available.
Air Quality Not available.
Flu Activity Not available.
METAR YMIA 292200Z AUTO 36011KT 9999 // NCD 07/02 Q1023

More Conditions Fewer Conditions

10-Day Weather Forecast

×

Almanac

Astronomy

Jul. 30, 2015 Rise Set
Actual Time
Civil Twilight
Nautical Twilight
Astronomical Twilight
Moon
Length of Visible Light
Length of Day
Tomorrow will be .
, % of the Moon is Illuminated

Today's Extremes

Country Highs Country Lows

Community

WunderPhotos

Upload Photos

1,842,175 photos uploaded!

WunderBlogs® & News

Nearby

Air Quality

  Air Quality AQ Index Pollutant
Not available.

Snow Depth

Station Depth Elevation

Earthquake Activity

City Distance Mag. Time & Date
Minimum magnitude displayed is 2.5.

Coastal Water Temperatures

Place Temperature

Stations

Nearby Weather Stations

Station Location Temp. Windchill Dew Point Humidity Wind Precip. Elev Updated Type